Carlotta, California
Current Conditions -  °F | °C
As of 12:10 AM on Friday 24 Oct 2014 (Local Time) from KFOT Reporting Station
Broken Clouds Broken Clouds  
Wind Chill: 55°   Ceiling: 7500
Heat Index: 55°   Visibility: 10mi
Dew Point: 54°   Wind: 7mph
Humidity: 94%   Direction: 140°SE
Pressure: 30"   Gusts: NA
Location:  40.54°N, 124.06°W
Report Text: KFOT 240710Z AUTO 14006KT 10SM BKN075 BKN110 13/12 A3000 RMK AO1
Loading
Personal Weather Stations






























Interactive Weather Map New forecast layout! Learn more

10-Day Weather Forecast

Advertisements
Track Severe Weather on mobile